Kelton, PA

12:10 AM EST on December 20, 2014 (GMT -0500)
Lincoln University | Change Station
CLOSE
Current Station
Personal Weather Station
Location: Lincoln University, PA
Elevation: 545 ft
Nearby Weather Stations

Elev 545 ft 39.82 °N, 75.91 °W | Updated 4 minutes ago

Partly Cloudy
Partly Cloudy
27.6 °F
Feels Like 28 °F
N
1.0
Wind Variable Wind from West
Gusts 3.0 mph

Today
High -- | Low -- °F
--% Chance of Precip.
Yesterday
High -- | Low -- °F
Precip. -- in
7:20 AM 4:41 PM
Waning Crescent, 4% visible
Pressure 30.18 in
Visibility 10.0 miles
Clouds Overcast 3200 ft
Windchill 28 °F
Dew Point 22 °F
Humidity 81%
Rainfall 0.00 in
Snow Depth Not available.
UV 0 out of 12
Pollen .10 out of 12
Air Quality Not available.
Flu Activity Not available.
METAR KMQS 200455Z AUTO 31006KT 10SM OVC032 00/M04 A3018 RMK AO2

More Conditions Fewer Conditions

Pressure 30.18 in
Visibility 10.0 miles
Clouds Overcast 3200 ft
Windchill 28 °F
Dew Point 22 °F
Humidity 81%
Rainfall 0.00 in
Snow Depth Not available.
UV 0 out of 12
Pollen .10 out of 12
Air Quality Not available.
Flu Activity Not available.
METAR KMQS 200455Z AUTO 31006KT 10SM OVC032 00/M04 A3018 RMK AO2

More Conditions Fewer Conditions

10-Day Weather Forecast

Almanac

Astronomy

Dec. 20, 2014 Rise Set
Actual Time
Civil Twilight
Nautical Twilight
Astronomical Twilight
Moon
Length of Visible Light
Length of Day
Tomorrow will be .
, % of the Moon is Illuminated

Today's Extremes

State Highs State Lows

Community

WunderPhotos

Upload Photos

1,779,137 photos uploaded!

WunderBlogs® & News

Nearby

Air Quality

  Air Quality AQ Index Pollutant
Not available.

Snow Depth

Station Depth Elevation

Earthquake Activity

City Distance Mag. Time & Date
Minimum magnitude displayed is 2.5.

Coastal Water Temperatures

Place Temperature

Nearby Weather Stations